createdAt,value
2023-03-12T00:01:16.766Z,21.22
2023-03-12T00:03:45.350Z,21.36
2023-03-12T00:06:13.597Z,21.11
2023-03-12T00:08:48.097Z,21.24
2023-03-12T00:11:18.044Z,21.19
2023-03-12T00:13:49.841Z,21.25
2023-03-12T00:16:17.875Z,20.55
2023-03-12T00:18:48.002Z,20.64
2023-03-12T00:21:16.387Z,21.09
2023-03-12T00:23:44.582Z,21.03
2023-03-12T00:26:14.071Z,20.77
2023-03-12T00:28:42.544Z,20.90
2023-03-12T00:31:28.049Z,21.04
2023-03-12T00:34:00.362Z,20.51
2023-03-12T00:36:29.940Z,20.51
2023-03-12T00:39:03.933Z,20.22
2023-03-12T00:41:32.227Z,20.43
2023-03-12T00:44:00.253Z,20.02
2023-03-12T00:46:28.449Z,20.04
2023-03-12T00:48:56.484Z,19.98
2023-03-12T00:51:24.526Z,19.60
2023-03-12T00:53:53.257Z,19.71
2023-03-12T00:56:21.203Z,20.00
2023-03-12T00:58:49.249Z,19.80
2023-03-12T01:01:17.390Z,19.86
2023-03-12T01:03:46.515Z,20.21
2023-03-12T01:06:14.841Z,20.40
2023-03-12T01:08:43.837Z,20.21
2023-03-12T01:11:19.369Z,19.52
2023-03-12T01:13:47.455Z,19.12
2023-03-12T01:16:15.520Z,19.81
2023-03-12T01:18:43.585Z,19.68
2023-03-12T01:21:11.636Z,19.93
2023-03-12T01:23:39.849Z,20.15
2023-03-12T01:26:07.910Z,20.19
2023-03-12T01:28:35.951Z,19.75
2023-03-12T01:31:11.371Z,19.48
2023-03-12T01:33:40.321Z,19.76
2023-03-12T01:36:29.625Z,19.73
2023-03-12T01:38:58.804Z,19.38
2023-03-12T01:41:29.459Z,19.44
2023-03-12T01:43:58.102Z,19.57
2023-03-12T01:46:35.818Z,19.43
2023-03-12T01:49:19.444Z,19.78
2023-03-12T01:52:01.843Z,19.76
2023-03-12T01:54:49.888Z,19.55
2023-03-12T01:57:21.003Z,19.01
2023-03-12T01:59:55.650Z,18.92
2023-03-12T02:02:30.003Z,19.26
2023-03-12T02:05:11.903Z,19.20
2023-03-12T02:07:40.702Z,19.06
2023-03-12T02:10:12.870Z,18.99
2023-03-12T02:12:41.543Z,19.33
2023-03-12T02:15:10.361Z,19.58
2023-03-12T02:17:41.204Z,19.36
2023-03-12T02:20:23.648Z,19.20
2023-03-12T02:22:57.062Z,18.90
2023-03-12T02:25:38.798Z,19.06
2023-03-12T02:28:09.570Z,19.00
2023-03-12T02:30:42.779Z,18.98
2023-03-12T02:33:25.643Z,18.37
2023-03-12T02:35:54.458Z,18.34
2023-03-12T02:38:40.973Z,17.99
2023-03-12T02:41:33.002Z,17.95
2023-03-12T02:44:25.464Z,18.00
2023-03-12T02:46:55.692Z,18.14
2023-03-12T02:49:26.207Z,18.14
2023-03-12T02:51:54.704Z,17.89
2023-03-12T02:54:22.962Z,18.18
2023-03-12T02:56:52.279Z,18.17
2023-03-12T02:59:21.933Z,17.81
2023-03-12T03:01:58.777Z,18.04
2023-03-12T03:04:28.596Z,17.78
2023-03-12T03:06:56.989Z,17.57
2023-03-12T03:09:26.022Z,17.14
2023-03-12T03:11:54.263Z,17.25
2023-03-12T03:14:25.039Z,17.48
2023-03-12T03:16:53.515Z,17.17
2023-03-12T03:19:23.739Z,16.87
2023-03-12T03:21:54.580Z,17.04
2023-03-12T03:24:26.127Z,17.11
2023-03-12T03:26:54.610Z,16.64
2023-03-12T03:29:22.921Z,16.53
2023-03-12T03:31:51.905Z,16.58
2023-03-12T03:34:20.269Z,16.62
2023-03-12T03:36:48.568Z,16.71
2023-03-12T03:39:17.763Z,16.62
2023-03-12T03:41:47.544Z,16.19
2023-03-12T03:44:17.184Z,16.16
2023-03-12T03:46:45.305Z,16.09
2023-03-12T03:49:13.542Z,16.39
2023-03-12T03:51:42.673Z,16.39
2023-03-12T03:54:11.829Z,16.15
2023-03-12T03:56:41.201Z,16.20
2023-03-12T03:59:13.351Z,15.96
2023-03-12T04:01:43.519Z,15.23
2023-03-12T04:04:11.613Z,15.65
2023-03-12T04:06:42.284Z,15.99
2023-03-12T04:09:10.964Z,15.99
2023-03-12T04:11:40.853Z,15.72
2023-03-12T04:14:09.978Z,16.09
2023-03-12T04:16:46.245Z,15.81
2023-03-12T04:19:14.871Z,15.63
2023-03-12T04:21:43.278Z,15.71
2023-03-12T04:24:15.716Z,15.79
2023-03-12T04:26:45.505Z,16.10
2023-03-12T04:29:15.413Z,15.72
2023-03-12T04:31:44.389Z,15.72
2023-03-12T04:34:14.523Z,15.56
2023-03-12T04:36:45.446Z,15.78
2023-03-12T04:39:20.998Z,16.01
2023-03-12T04:41:55.147Z,15.95
2023-03-12T04:44:24.547Z,16.02
2023-03-12T04:46:56.028Z,15.58
2023-03-12T04:49:26.037Z,15.29
2023-03-12T04:51:56.162Z,15.68
2023-03-12T04:54:24.270Z,15.40
2023-03-12T04:56:53.608Z,15.33
2023-03-12T04:59:27.001Z,14.94
2023-03-12T05:01:55.692Z,14.69
2023-03-12T05:04:27.340Z,14.67
2023-03-12T05:06:55.912Z,14.36
2023-03-12T05:09:24.113Z,13.54
2023-03-12T05:11:52.275Z,13.28
2023-03-12T05:14:22.979Z,13.39
2023-03-12T05:16:51.121Z,13.34
2023-03-12T05:19:19.857Z,13.65
2023-03-12T05:21:47.810Z,13.95
2023-03-12T05:24:16.354Z,14.25
2023-03-12T05:26:45.800Z,14.23
2023-03-12T05:29:19.201Z,14.15
2023-03-12T05:31:47.650Z,14.31
2023-03-12T05:34:16.570Z,14.56
2023-03-12T05:36:46.611Z,15.06
2023-03-12T05:39:17.684Z,15.10
2023-03-12T05:41:46.128Z,14.95
2023-03-12T05:44:17.877Z,14.76
2023-03-12T05:46:50.141Z,14.46
2023-03-12T05:49:18.784Z,14.17
2023-03-12T05:51:48.184Z,14.57
2023-03-12T05:54:17.150Z,14.91
2023-03-12T05:56:46.416Z,15.21
2023-03-12T05:59:15.200Z,15.05
2023-03-12T06:01:43.393Z,15.17
2023-03-12T06:04:11.647Z,15.27
2023-03-12T06:06:40.492Z,15.19
2023-03-12T06:09:09.888Z,15.05
2023-03-12T06:11:38.014Z,15.17
2023-03-12T06:14:07.213Z,14.91
2023-03-12T06:16:37.093Z,15.38
2023-03-12T06:19:05.813Z,15.11
2023-03-12T06:21:40.667Z,14.47
2023-03-12T06:24:09.635Z,14.68
2023-03-12T06:26:52.433Z,14.78
2023-03-12T06:29:20.829Z,14.88
2023-03-12T06:31:52.243Z,14.47
2023-03-12T06:34:23.804Z,14.35
2023-03-12T06:36:53.405Z,14.18
2023-03-12T06:39:21.754Z,14.16
2023-03-12T06:41:50.203Z,14.36
2023-03-12T06:44:18.583Z,13.92
2023-03-12T06:46:48.117Z,13.91
2023-03-12T06:49:16.374Z,14.49
2023-03-12T06:51:44.595Z,14.87
2023-03-12T06:54:12.931Z,15.06
2023-03-12T06:56:41.712Z,14.48
2023-03-12T06:59:10.388Z,14.69
2023-03-12T07:01:39.181Z,14.46
2023-03-12T07:04:07.190Z,14.15
2023-03-12T07:06:35.366Z,13.96
2023-03-12T07:09:06.328Z,14.08
2023-03-12T07:11:36.839Z,14.13
2023-03-12T07:14:07.637Z,14.55
2023-03-12T07:16:36.480Z,14.68
2023-03-12T07:19:05.723Z,14.56
2023-03-12T07:21:34.280Z,14.58
2023-03-12T07:24:09.374Z,14.81
2023-03-12T07:26:37.637Z,15.16
2023-03-12T07:29:06.210Z,15.25
2023-03-12T07:31:37.187Z,14.76
2023-03-12T07:34:06.500Z,14.96
2023-03-12T07:36:37.482Z,14.69
2023-03-12T07:39:06.258Z,15.05
2023-03-12T07:41:37.339Z,15.24
2023-03-12T07:44:06.491Z,14.82
2023-03-12T07:46:35.618Z,14.76
2023-03-12T07:49:05.006Z,14.78
2023-03-12T07:51:33.931Z,14.42
2023-03-12T07:56:18.021Z,10.75
2023-03-12T07:58:46.676Z,12.75
2023-03-12T08:01:15.829Z,13.18
2023-03-12T08:03:44.384Z,13.45
2023-03-12T08:06:16.905Z,13.07
2023-03-12T08:08:48.243Z,13.22
2023-03-12T08:11:16.609Z,13.75
2023-03-12T08:13:50.029Z,14.03
2023-03-12T08:16:18.876Z,13.99
2023-03-12T08:18:47.094Z,14.31
2023-03-12T08:21:16.877Z,14.51
2023-03-12T08:23:46.268Z,14.54
2023-03-12T08:26:15.469Z,14.74
2023-03-12T08:28:47.097Z,14.95
2023-03-12T08:31:15.431Z,15.28
2023-03-12T08:33:47.067Z,15.96
2023-03-12T08:36:17.908Z,16.44
2023-03-12T08:38:47.615Z,16.78
2023-03-12T08:41:19.691Z,16.75
2023-03-12T08:43:47.752Z,16.76
2023-03-12T08:46:16.183Z,16.62
2023-03-12T08:48:44.510Z,16.62
2023-03-12T08:51:13.827Z,16.71
2023-03-12T08:53:45.236Z,16.74
2023-03-12T08:56:17.538Z,16.24
2023-03-12T08:58:48.983Z,15.67
2023-03-12T09:01:17.070Z,15.50
2023-03-12T09:03:49.646Z,15.47
2023-03-12T09:06:19.436Z,15.61
2023-03-12T09:08:51.658Z,15.50
2023-03-12T09:11:19.884Z,15.66
2023-03-12T09:14:18.673Z,15.83
2023-03-12T09:16:38.911Z,15.91
2023-03-12T09:19:07.455Z,15.77
2023-03-12T09:21:40.847Z,15.76
2023-03-12T09:24:10.603Z,16.04
2023-03-12T09:26:38.932Z,16.24
2023-03-12T09:29:08.801Z,16.88
2023-03-12T09:31:37.300Z,17.01
2023-03-12T09:34:07.748Z,17.37
2023-03-12T09:36:38.149Z,17.85
2023-03-12T09:39:06.600Z,18.20
2023-03-12T09:41:37.903Z,17.90
2023-03-12T09:44:29.923Z,17.90
2023-03-12T09:47:02.513Z,17.84
2023-03-12T09:49:40.616Z,17.71
2023-03-12T09:52:24.156Z,17.66
2023-03-12T09:54:58.060Z,17.52
2023-03-12T09:57:26.198Z,17.30
2023-03-12T09:59:54.880Z,17.11
2023-03-12T10:03:01.088Z,16.77
2023-03-12T10:05:37.088Z,16.93
2023-03-12T10:08:25.115Z,16.90
2023-03-12T10:11:06.543Z,17.30
2023-03-12T10:13:44.478Z,16.96
2023-03-12T10:16:27.674Z,17.44
2023-03-12T10:19:20.731Z,17.86
2023-03-12T10:22:30.918Z,18.05
2023-03-12T10:25:25.260Z,18.17
2023-03-12T10:27:54.300Z,17.25
2023-03-12T10:30:27.187Z,17.33
2023-03-12T10:33:04.409Z,17.76
2023-03-12T10:35:32.543Z,18.50
2023-03-12T10:38:01.761Z,18.97
2023-03-12T10:40:34.237Z,19.49
2023-03-12T10:43:07.033Z,19.81
2023-03-12T10:46:10.813Z,20.25
2023-03-12T10:48:39.422Z,20.43
2023-03-12T10:51:09.054Z,19.47
2023-03-12T10:53:39.224Z,18.87
2023-03-12T10:56:14.600Z,19.15
2023-03-12T10:58:48.076Z,19.58
2023-03-12T11:01:27.034Z,19.63
2023-03-12T11:04:14.306Z,19.62
2023-03-12T11:06:42.486Z,19.30
2023-03-12T11:09:18.814Z,19.47
2023-03-12T11:11:48.059Z,19.51
2023-03-12T11:14:21.029Z,19.25
2023-03-12T11:16:49.817Z,18.81
2023-03-12T11:19:28.625Z,18.45
2023-03-12T11:22:08.279Z,18.55
2023-03-12T11:24:36.389Z,18.65
2023-03-12T11:27:11.850Z,18.51
2023-03-12T11:29:44.977Z,18.66
2023-03-12T11:32:32.666Z,18.90
2023-03-12T11:35:01.235Z,19.11
2023-03-12T11:38:00.420Z,19.56
2023-03-12T11:41:00.026Z,19.29
2023-03-12T11:44:07.007Z,18.99
2023-03-12T11:46:45.015Z,19.08
2023-03-12T11:49:32.223Z,19.41
2023-03-12T11:52:23.968Z,18.84
2023-03-12T11:55:18.853Z,18.60
2023-03-12T11:57:59.433Z,18.91
2023-03-12T12:00:42.816Z,19.42
2023-03-12T12:03:38.639Z,20.03
2023-03-12T12:06:17.213Z,20.40
2023-03-12T12:09:10.972Z,20.65
2023-03-12T12:12:26.480Z,20.67
2023-03-12T12:14:57.349Z,20.03
2023-03-12T12:17:32.441Z,20.05
2023-03-12T12:20:27.026Z,19.55
2023-03-12T12:23:18.738Z,19.08
2023-03-12T12:25:54.305Z,19.23
2023-03-12T12:28:47.568Z,19.35
2023-03-12T12:31:36.993Z,19.26
2023-03-12T12:34:18.134Z,17.75
2023-03-12T12:37:14.035Z,18.06
2023-03-12T12:39:47.929Z,17.99
2023-03-12T12:42:21.143Z,17.69
2023-03-12T12:44:52.798Z,17.89
2023-03-12T12:47:34.232Z,17.63
2023-03-12T12:50:03.262Z,17.89
2023-03-12T12:52:31.840Z,18.07
2023-03-12T12:55:22.162Z,18.10
2023-03-12T12:58:08.419Z,18.00
2023-03-12T13:00:48.370Z,18.09
2023-03-12T13:03:22.194Z,17.98
2023-03-12T13:05:57.525Z,17.92
2023-03-12T13:08:39.650Z,17.99
2023-03-12T13:11:20.397Z,18.00
2023-03-12T13:14:03.826Z,17.64
2023-03-12T13:16:40.186Z,17.58
2023-03-12T13:19:25.257Z,17.53
2023-03-12T13:22:15.052Z,17.48
2023-03-12T13:24:51.823Z,17.04
2023-03-12T13:27:23.503Z,17.00
2023-03-12T13:29:57.161Z,17.11
2023-03-12T13:32:34.545Z,16.97
2023-03-12T13:35:27.958Z,16.93
2023-03-12T13:37:56.754Z,16.07
2023-03-12T13:40:33.836Z,15.94
2023-03-12T13:43:08.332Z,16.48
2023-03-12T13:46:20.870Z,16.53
2023-03-12T13:48:51.371Z,16.88
2023-03-12T13:51:23.918Z,16.16
2023-03-12T13:53:55.088Z,16.48
2023-03-12T13:56:28.408Z,16.17
2023-03-12T13:59:04.155Z,15.88
2023-03-12T14:01:36.628Z,15.77
2023-03-12T14:04:13.529Z,15.94
2023-03-12T14:07:27.089Z,15.53
2023-03-12T14:10:00.623Z,15.95
2023-03-12T14:12:31.422Z,15.99
2023-03-12T14:15:14.483Z,16.05
2023-03-12T14:17:44.163Z,15.95
2023-03-12T14:20:15.647Z,15.62
2023-03-12T14:22:46.237Z,15.57
2023-03-12T14:25:37.290Z,15.90
2023-03-12T14:28:27.806Z,16.12
2023-03-12T14:31:02.321Z,16.08
2023-03-12T14:33:36.684Z,16.24
2023-03-12T14:36:09.663Z,16.29
2023-03-12T14:38:40.417Z,16.22
2023-03-12T14:41:13.638Z,15.62
2023-03-12T14:43:42.892Z,15.53
2023-03-12T14:46:22.565Z,15.93
2023-03-12T14:48:52.243Z,16.23
2023-03-12T14:51:28.638Z,16.33
2023-03-12T14:53:57.479Z,16.18
2023-03-12T14:56:29.587Z,16.27
2023-03-12T14:58:59.321Z,16.06
2023-03-12T15:01:30.086Z,16.15
2023-03-12T15:04:01.204Z,15.97
2023-03-12T15:06:29.689Z,15.29
2023-03-12T15:09:02.793Z,15.80
2023-03-12T15:11:33.099Z,16.20
2023-03-12T15:14:07.055Z,16.00
2023-03-12T15:16:37.909Z,15.74
2023-03-12T15:19:05.936Z,15.96
2023-03-12T15:21:35.039Z,15.71
2023-03-12T15:24:04.249Z,15.54
2023-03-12T15:26:36.465Z,15.33
2023-03-12T15:29:27.143Z,14.85
2023-03-12T15:31:59.401Z,15.36
2023-03-12T15:34:35.510Z,15.37
2023-03-12T15:37:23.274Z,15.80
2023-03-12T15:39:52.024Z,15.78
2023-03-12T15:42:23.622Z,15.57
2023-03-12T15:45:03.529Z,15.38
2023-03-12T15:47:33.637Z,15.47
2023-03-12T15:50:05.407Z,15.35
2023-03-12T15:52:34.621Z,15.41
2023-03-12T15:55:10.165Z,15.33
2023-03-12T15:57:48.168Z,15.41
2023-03-12T16:00:30.994Z,15.38
2023-03-12T16:03:06.312Z,15.16
2023-03-12T16:05:35.776Z,15.10
2023-03-12T16:08:13.327Z,14.95
2023-03-12T16:10:41.508Z,14.55
2023-03-12T16:13:11.733Z,14.91
2023-03-12T16:15:44.458Z,15.09
2023-03-12T16:18:15.116Z,14.83
2023-03-12T16:20:43.295Z,14.61
2023-03-12T16:23:17.831Z,14.46
2023-03-12T16:25:47.922Z,14.36
2023-03-12T16:28:17.029Z,14.50
2023-03-12T16:30:45.721Z,14.43
2023-03-12T16:33:18.446Z,14.66
2023-03-12T16:35:47.081Z,14.62
2023-03-12T16:38:15.460Z,14.45
2023-03-12T16:40:48.508Z,14.41
2023-03-12T16:43:29.265Z,14.63
2023-03-12T16:45:58.003Z,14.88
2023-03-12T16:48:27.360Z,15.08
2023-03-12T16:50:57.095Z,14.51
2023-03-12T16:53:27.862Z,15.00
2023-03-12T16:56:01.112Z,15.22
2023-03-12T16:58:31.045Z,14.97
2023-03-12T17:00:59.719Z,15.13
2023-03-12T17:03:36.831Z,15.01
2023-03-12T17:06:08.213Z,15.27
2023-03-12T17:08:37.110Z,14.90
2023-03-12T17:11:17.194Z,14.54
2023-03-12T17:13:46.537Z,14.20
2023-03-12T17:16:16.723Z,14.40
2023-03-12T17:18:56.994Z,14.48
2023-03-12T17:21:25.815Z,14.17
2023-03-12T17:23:56.038Z,13.96
2023-03-12T17:26:24.351Z,13.75
2023-03-12T17:28:52.760Z,13.60
2023-03-12T17:31:21.367Z,13.22
2023-03-12T17:33:50.054Z,13.08
2023-03-12T17:36:20.585Z,13.16
2023-03-12T17:38:51.091Z,13.05
2023-03-12T17:41:26.625Z,13.09
2023-03-12T17:44:00.015Z,13.28
2023-03-12T17:46:29.588Z,12.88
2023-03-12T17:49:02.541Z,12.98
2023-03-12T17:51:31.557Z,12.91
2023-03-12T17:54:01.852Z,12.90
2023-03-12T17:56:30.971Z,12.85
2023-03-12T17:58:59.630Z,12.88
2023-03-12T18:01:27.657Z,12.64
2023-03-12T18:03:55.902Z,12.61
2023-03-12T18:06:25.810Z,12.72
2023-03-12T18:08:56.107Z,13.05
2023-03-12T18:11:24.498Z,12.69
2023-03-12T18:13:54.238Z,12.90
2023-03-12T18:16:23.970Z,12.93
2023-03-12T18:18:52.879Z,13.33
2023-03-12T18:21:22.068Z,13.24
2023-03-12T18:23:50.872Z,13.49
2023-03-12T18:26:19.678Z,13.47
2023-03-12T18:28:49.711Z,13.58
2023-03-12T18:31:18.856Z,13.28
2023-03-12T18:33:51.625Z,13.36
2023-03-12T18:36:20.292Z,13.53
2023-03-12T18:38:53.101Z,13.49
2023-03-12T18:41:21.408Z,13.33
2023-03-12T18:43:53.733Z,13.35
2023-03-12T18:46:24.171Z,13.46
2023-03-12T18:48:53.492Z,13.56
2023-03-12T18:51:22.441Z,13.68
2023-03-12T18:53:50.788Z,13.81
2023-03-12T18:56:22.868Z,13.66
2023-03-12T18:58:51.063Z,13.68
2023-03-12T19:01:19.270Z,13.96
2023-03-12T19:03:49.391Z,13.87
2023-03-12T19:06:18.628Z,13.95
2023-03-12T19:08:47.596Z,14.11
2023-03-12T19:11:16.822Z,13.97
2023-03-12T19:13:45.423Z,14.11
2023-03-12T19:16:22.073Z,14.25
2023-03-12T19:18:50.973Z,13.91
2023-03-12T19:21:19.138Z,14.26
2023-03-12T19:23:47.701Z,14.61
2023-03-12T19:26:16.611Z,14.59
2023-03-12T19:28:44.812Z,14.22
2023-03-12T19:31:15.373Z,14.27
2023-03-12T19:33:44.930Z,14.25
2023-03-12T19:36:14.317Z,14.10
2023-03-12T19:38:42.390Z,13.69
2023-03-12T19:41:10.505Z,13.52
2023-03-12T19:43:42.427Z,14.01
2023-03-12T19:46:11.993Z,13.96
2023-03-12T19:48:42.256Z,13.76
2023-03-12T19:51:11.124Z,13.92
2023-03-12T19:53:40.478Z,13.59
2023-03-12T19:56:09.230Z,13.84
2023-03-12T19:58:38.013Z,13.83
2023-03-12T20:01:06.616Z,13.61
2023-03-12T20:03:35.070Z,13.57
2023-03-12T20:06:03.669Z,13.24
2023-03-12T20:08:31.881Z,13.50
2023-03-12T20:13:24.293Z,9.21
2023-03-12T20:15:58.514Z,11.06
2023-03-12T20:18:29.355Z,11.40
2023-03-12T20:20:57.624Z,11.77
2023-03-12T20:23:25.655Z,12.09
2023-03-12T20:25:54.113Z,12.25
2023-03-12T20:28:22.247Z,12.24
2023-03-12T20:30:54.217Z,12.16
2023-03-12T20:33:22.792Z,12.46
2023-03-12T20:35:51.327Z,12.74
2023-03-12T20:38:20.364Z,13.18
2023-03-12T20:40:48.390Z,13.09
2023-03-12T20:43:20.281Z,13.30
2023-03-12T20:45:52.683Z,12.73
2023-03-12T20:48:21.578Z,12.83
2023-03-12T20:50:50.943Z,12.61
2023-03-12T20:53:19.495Z,12.48
2023-03-12T20:55:49.337Z,12.37
2023-03-12T20:58:18.092Z,12.65
2023-03-12T21:00:46.227Z,12.11
2023-03-12T21:03:15.427Z,12.47
2023-03-12T21:05:43.435Z,12.56
2023-03-12T21:08:12.089Z,12.54
2023-03-12T21:10:40.521Z,12.78
2023-03-12T21:13:21.584Z,12.80
2023-03-12T21:15:49.700Z,12.68
2023-03-12T21:18:17.914Z,13.14
2023-03-12T21:20:47.298Z,13.09
2023-03-12T21:23:15.769Z,12.81
2023-03-12T21:25:43.758Z,13.17
2023-03-12T21:28:12.626Z,12.87
2023-03-12T21:30:40.806Z,12.76
2023-03-12T21:33:10.196Z,12.77
2023-03-12T21:35:38.182Z,12.70
2023-03-12T21:38:09.965Z,12.84
2023-03-12T21:40:39.737Z,12.73
2023-03-12T21:43:07.926Z,12.85
2023-03-12T21:45:37.911Z,13.01
2023-03-12T21:48:07.146Z,12.99
2023-03-12T21:50:36.947Z,12.96
2023-03-12T21:53:21.167Z,13.03
2023-03-12T21:55:58.144Z,13.18
2023-03-12T21:58:27.589Z,12.97
2023-03-12T22:01:04.554Z,12.66
2023-03-12T22:03:35.173Z,12.86
2023-03-12T22:06:04.384Z,13.32
2023-03-12T22:08:32.662Z,13.28
2023-03-12T22:11:02.499Z,13.39
2023-03-12T22:13:30.945Z,13.33
2023-03-12T22:16:08.214Z,13.16
2023-03-12T22:18:40.232Z,12.82
2023-03-12T22:21:08.371Z,12.76
2023-03-12T22:23:38.238Z,12.35
2023-03-12T22:26:07.165Z,12.41
2023-03-12T22:28:37.305Z,12.12
2023-03-12T22:31:07.380Z,11.89
2023-03-12T22:33:36.466Z,11.96
2023-03-12T22:36:10.004Z,11.95
2023-03-12T22:38:41.741Z,12.17
2023-03-12T22:41:23.773Z,12.32
2023-03-12T22:43:53.547Z,12.34
2023-03-12T22:46:22.544Z,12.18
2023-03-12T22:48:53.742Z,12.12
2023-03-12T22:51:22.604Z,11.93
2023-03-12T22:53:52.624Z,12.16
2023-03-12T22:56:21.173Z,12.13
2023-03-12T22:58:49.594Z,11.47
2023-03-12T23:01:19.873Z,11.19
2023-03-12T23:03:48.260Z,11.58
2023-03-12T23:06:22.632Z,11.68
2023-03-12T23:08:51.559Z,11.68
2023-03-12T23:11:25.545Z,11.97
2023-03-12T23:13:54.432Z,11.70
2023-03-12T23:16:24.503Z,11.56
2023-03-12T23:18:54.227Z,11.09
2023-03-12T23:21:23.171Z,11.11
2023-03-12T23:23:51.804Z,11.19
2023-03-12T23:26:22.966Z,11.29
2023-03-12T23:28:53.464Z,11.44
2023-03-12T23:31:23.945Z,11.76
2023-03-12T23:33:52.361Z,11.75
2023-03-12T23:36:24.779Z,11.66
2023-03-12T23:38:53.243Z,11.28
2023-03-12T23:41:31.035Z,11.30
2023-03-12T23:43:59.603Z,11.24
2023-03-12T23:46:28.059Z,11.23
2023-03-12T23:48:59.321Z,11.57
2023-03-12T23:51:31.944Z,11.27
2023-03-12T23:54:02.525Z,11.36
2023-03-12T23:56:37.604Z,11.43
2023-03-12T23:59:07.112Z,11.21
